sensor_id;sensor_type;location;lat;lon;timestamp;P1;durP1;ratioP1;P2;durP2;ratioP2
8421;SDS011;4248;48.196;10.924;2023-02-12T00:01:16;34.97;;;19.90;;
8421;SDS011;4248;48.196;10.924;2023-02-12T00:03:42;35.30;;;17.90;;
8421;SDS011;4248;48.196;10.924;2023-02-12T00:06:07;31.90;;;17.93;;
8421;SDS011;4248;48.196;10.924;2023-02-12T00:08:34;31.50;;;17.93;;
8421;SDS011;4248;48.196;10.924;2023-02-12T00:11:11;32.77;;;18.27;;
8421;SDS011;4248;48.196;10.924;2023-02-12T00:13:39;32.70;;;18.30;;
8421;SDS011;4248;48.196;10.924;2023-02-12T00:16:09;38.40;;;19.80;;
8421;SDS011;4248;48.196;10.924;2023-02-12T00:18:36;32.50;;;19.70;;
8421;SDS011;4248;48.196;10.924;2023-02-12T00:21:02;40.00;;;21.00;;
8421;SDS011;4248;48.196;10.924;2023-02-12T00:23:29;38.20;;;20.80;;
8421;SDS011;4248;48.196;10.924;2023-02-12T00:25:54;40.83;;;22.27;;
8421;SDS011;4248;48.196;10.924;2023-02-12T00:28:20;51.33;;;25.33;;
8421;SDS011;4248;48.196;10.924;2023-02-12T00:30:46;38.27;;;21.00;;
8421;SDS011;4248;48.196;10.924;2023-02-12T00:33:11;42.97;;;22.80;;
8421;SDS011;4248;48.196;10.924;2023-02-12T00:35:37;42.73;;;22.20;;
8421;SDS011;4248;48.196;10.924;2023-02-12T00:38:03;44.83;;;22.50;;
8421;SDS011;4248;48.196;10.924;2023-02-12T00:40:28;46.80;;;22.77;;
8421;SDS011;4248;48.196;10.924;2023-02-12T00:42:55;42.30;;;21.83;;
8421;SDS011;4248;48.196;10.924;2023-02-12T00:45:21;38.40;;;21.70;;
8421;SDS011;4248;48.196;10.924;2023-02-12T00:47:46;38.67;;;20.73;;
8421;SDS011;4248;48.196;10.924;2023-02-12T00:50:12;36.17;;;19.47;;
8421;SDS011;4248;48.196;10.924;2023-02-12T00:52:37;35.50;;;19.10;;
8421;SDS011;4248;48.196;10.924;2023-02-12T00:55:03;33.50;;;18.37;;
8421;SDS011;4248;48.196;10.924;2023-02-12T00:57:30;44.30;;;19.03;;
8421;SDS011;4248;48.196;10.924;2023-02-12T00:59:57;33.87;;;19.17;;
8421;SDS011;4248;48.196;10.924;2023-02-12T01:02:23;34.03;;;17.53;;
8421;SDS011;4248;48.196;10.924;2023-02-12T01:04:49;28.57;;;16.27;;
8421;SDS011;4248;48.196;10.924;2023-02-12T01:07:14;27.10;;;16.67;;
8421;SDS011;4248;48.196;10.924;2023-02-12T01:09:40;30.40;;;16.70;;
8421;SDS011;4248;48.196;10.924;2023-02-12T01:12:06;31.57;;;17.50;;
8421;SDS011;4248;48.196;10.924;2023-02-12T01:14:32;27.80;;;16.57;;
8421;SDS011;4248;48.196;10.924;2023-02-12T01:16:58;30.20;;;16.97;;
8421;SDS011;4248;48.196;10.924;2023-02-12T01:19:23;28.17;;;17.20;;
8421;SDS011;4248;48.196;10.924;2023-02-12T01:21:49;29.57;;;16.07;;
8421;SDS011;4248;48.196;10.924;2023-02-12T01:24:14;27.93;;;16.80;;
8421;SDS011;4248;48.196;10.924;2023-02-12T01:26:40;27.57;;;16.10;;
8421;SDS011;4248;48.196;10.924;2023-02-12T01:29:06;27.80;;;15.27;;
8421;SDS011;4248;48.196;10.924;2023-02-12T01:31:34;27.00;;;15.10;;
8421;SDS011;4248;48.196;10.924;2023-02-12T01:34:01;30.23;;;16.73;;
8421;SDS011;4248;48.196;10.924;2023-02-12T01:36:27;27.90;;;15.60;;
8421;SDS011;4248;48.196;10.924;2023-02-12T01:38:54;25.77;;;15.03;;
8421;SDS011;4248;48.196;10.924;2023-02-12T01:41:22;27.73;;;15.27;;
8421;SDS011;4248;48.196;10.924;2023-02-12T01:46:36;27.70;;;15.70;;
8421;SDS011;4248;48.196;10.924;2023-02-12T01:49:03;27.93;;;16.10;;
8421;SDS011;4248;48.196;10.924;2023-02-12T01:51:32;32.30;;;16.63;;
8421;SDS011;4248;48.196;10.924;2023-02-12T01:53:59;31.17;;;16.30;;
8421;SDS011;4248;48.196;10.924;2023-02-12T01:56:28;26.30;;;15.70;;
8421;SDS011;4248;48.196;10.924;2023-02-12T01:58:55;28.80;;;15.60;;
8421;SDS011;4248;48.196;10.924;2023-02-12T02:01:22;27.50;;;15.30;;
8421;SDS011;4248;48.196;10.924;2023-02-12T02:03:51;28.00;;;15.90;;
8421;SDS011;4248;48.196;10.924;2023-02-12T02:06:26;30.77;;;16.50;;
8421;SDS011;4248;48.196;10.924;2023-02-12T02:08:56;26.20;;;15.00;;
8421;SDS011;4248;48.196;10.924;2023-02-12T02:11:22;25.30;;;15.00;;
8421;SDS011;4248;48.196;10.924;2023-02-12T02:14:06;25.97;;;15.13;;
8421;SDS011;4248;48.196;10.924;2023-02-12T02:19:46;27.70;;;15.97;;
8421;SDS011;4248;48.196;10.924;2023-02-12T02:30:38;28.43;;;14.90;;
8421;SDS011;4248;48.196;10.924;2023-02-12T02:33:19;26.23;;;15.53;;
8421;SDS011;4248;48.196;10.924;2023-02-12T02:36:02;26.73;;;14.90;;
8421;SDS011;4248;48.196;10.924;2023-02-12T02:41:21;26.20;;;15.30;;
8421;SDS011;4248;48.196;10.924;2023-02-12T02:43:55;35.93;;;16.93;;
8421;SDS011;4248;48.196;10.924;2023-02-12T02:46:23;27.57;;;14.80;;
8421;SDS011;4248;48.196;10.924;2023-02-12T02:48:59;25.93;;;15.10;;
8421;SDS011;4248;48.196;10.924;2023-02-12T02:51:30;40.10;;;16.20;;
8421;SDS011;4248;48.196;10.924;2023-02-12T02:56:44;28.60;;;16.20;;
8421;SDS011;4248;48.196;10.924;2023-02-12T02:59:28;29.63;;;16.90;;
8421;SDS011;4248;48.196;10.924;2023-02-12T03:02:03;31.60;;;16.33;;
8421;SDS011;4248;48.196;10.924;2023-02-12T03:04:38;32.70;;;16.53;;
8421;SDS011;4248;48.196;10.924;2023-02-12T03:07:11;30.70;;;16.00;;
8421;SDS011;4248;48.196;10.924;2023-02-12T03:09:58;27.90;;;15.00;;
8421;SDS011;4248;48.196;10.924;2023-02-12T03:12:32;29.53;;;15.77;;
8421;SDS011;4248;48.196;10.924;2023-02-12T03:15:08;23.50;;;14.33;;
8421;SDS011;4248;48.196;10.924;2023-02-12T03:17:43;24.23;;;14.63;;
8421;SDS011;4248;48.196;10.924;2023-02-12T03:22:47;23.23;;;14.20;;
8421;SDS011;4248;48.196;10.924;2023-02-12T03:25:32;27.60;;;16.17;;
8421;SDS011;4248;48.196;10.924;2023-02-12T03:30:35;26.30;;;15.60;;
8421;SDS011;4248;48.196;10.924;2023-02-12T03:33:19;25.30;;;14.83;;
8421;SDS011;4248;48.196;10.924;2023-02-12T03:36:14;26.23;;;14.20;;
8421;SDS011;4248;48.196;10.924;2023-02-12T03:38:43;26.27;;;14.13;;
8421;SDS011;4248;48.196;10.924;2023-02-12T03:41:20;25.30;;;14.57;;
8421;SDS011;4248;48.196;10.924;2023-02-12T03:43:58;28.93;;;15.00;;
8421;SDS011;4248;48.196;10.924;2023-02-12T03:46:40;27.40;;;15.00;;
8421;SDS011;4248;48.196;10.924;2023-02-12T03:49:24;24.83;;;14.80;;
8421;SDS011;4248;48.196;10.924;2023-02-12T03:51:55;32.40;;;16.40;;
8421;SDS011;4248;48.196;10.924;2023-02-12T03:54:22;25.67;;;15.30;;
8421;SDS011;4248;48.196;10.924;2023-02-12T03:59:24;27.70;;;14.90;;
8421;SDS011;4248;48.196;10.924;2023-02-12T04:01:51;31.17;;;15.67;;
8421;SDS011;4248;48.196;10.924;2023-02-12T04:04:18;27.23;;;14.57;;
8421;SDS011;4248;48.196;10.924;2023-02-12T04:06:44;30.13;;;15.97;;
8421;SDS011;4248;48.196;10.924;2023-02-12T04:09:13;26.73;;;15.00;;
8421;SDS011;4248;48.196;10.924;2023-02-12T04:22:59;25.20;;;14.87;;
8421;SDS011;4248;48.196;10.924;2023-02-12T04:30:58;25.73;;;14.57;;
8421;SDS011;4248;48.196;10.924;2023-02-12T04:33:26;25.70;;;14.40;;
8421;SDS011;4248;48.196;10.924;2023-02-12T04:35:59;27.97;;;15.70;;
8421;SDS011;4248;48.196;10.924;2023-02-12T04:39:14;28.90;;;15.93;;
8421;SDS011;4248;48.196;10.924;2023-02-12T04:41:24;32.33;;;16.60;;
8421;SDS011;4248;48.196;10.924;2023-02-12T04:43:50;31.73;;;17.40;;
8421;SDS011;4248;48.196;10.924;2023-02-12T04:46:16;30.57;;;18.73;;
8421;SDS011;4248;48.196;10.924;2023-02-12T04:51:15;30.23;;;17.90;;
8421;SDS011;4248;48.196;10.924;2023-02-12T04:53:41;41.00;;;19.90;;
8421;SDS011;4248;48.196;10.924;2023-02-12T04:56:07;31.67;;;18.73;;
8421;SDS011;4248;48.196;10.924;2023-02-12T04:58:35;33.33;;;18.60;;
8421;SDS011;4248;48.196;10.924;2023-02-12T05:01:01;29.43;;;18.07;;
8421;SDS011;4248;48.196;10.924;2023-02-12T05:03:27;30.77;;;17.63;;
8421;SDS011;4248;48.196;10.924;2023-02-12T05:05:53;34.53;;;20.90;;
8421;SDS011;4248;48.196;10.924;2023-02-12T05:08:18;35.57;;;21.17;;
8421;SDS011;4248;48.196;10.924;2023-02-12T05:10:44;40.53;;;20.23;;
8421;SDS011;4248;48.196;10.924;2023-02-12T05:13:09;33.27;;;19.00;;
8421;SDS011;4248;48.196;10.924;2023-02-12T05:15:37;31.07;;;18.40;;
8421;SDS011;4248;48.196;10.924;2023-02-12T05:18:03;32.43;;;17.77;;
8421;SDS011;4248;48.196;10.924;2023-02-12T05:20:29;28.60;;;16.20;;
8421;SDS011;4248;48.196;10.924;2023-02-12T05:22:54;35.43;;;16.70;;
8421;SDS011;4248;48.196;10.924;2023-02-12T05:25:20;29.77;;;16.40;;
8421;SDS011;4248;48.196;10.924;2023-02-12T05:27:46;29.70;;;16.47;;
8421;SDS011;4248;48.196;10.924;2023-02-12T05:30:11;31.67;;;16.30;;
8421;SDS011;4248;48.196;10.924;2023-02-12T05:32:37;26.93;;;15.40;;
8421;SDS011;4248;48.196;10.924;2023-02-12T05:35:03;30.53;;;17.10;;
8421;SDS011;4248;48.196;10.924;2023-02-12T05:37:29;25.20;;;14.97;;
8421;SDS011;4248;48.196;10.924;2023-02-12T05:39:55;24.30;;;14.93;;
8421;SDS011;4248;48.196;10.924;2023-02-12T05:42:21;27.80;;;15.27;;
8421;SDS011;4248;48.196;10.924;2023-02-12T05:44:46;29.43;;;15.37;;
8421;SDS011;4248;48.196;10.924;2023-02-12T05:47:12;30.00;;;15.50;;
8421;SDS011;4248;48.196;10.924;2023-02-12T05:49:37;31.40;;;16.17;;
8421;SDS011;4248;48.196;10.924;2023-02-12T05:52:03;36.43;;;17.07;;
8421;SDS011;4248;48.196;10.924;2023-02-12T05:54:29;27.73;;;16.00;;
8421;SDS011;4248;48.196;10.924;2023-02-12T05:56:54;31.20;;;17.60;;
8421;SDS011;4248;48.196;10.924;2023-02-12T05:59:21;27.70;;;15.50;;
8421;SDS011;4248;48.196;10.924;2023-02-12T06:01:48;26.17;;;15.97;;
8421;SDS011;4248;48.196;10.924;2023-02-12T06:04:19;30.07;;;15.87;;
8421;SDS011;4248;48.196;10.924;2023-02-12T06:06:48;26.73;;;15.23;;
8421;SDS011;4248;48.196;10.924;2023-02-12T06:09:14;24.43;;;15.33;;
8421;SDS011;4248;48.196;10.924;2023-02-12T06:11:40;30.90;;;15.27;;
8421;SDS011;4248;48.196;10.924;2023-02-12T06:14:07;22.83;;;13.60;;
8421;SDS011;4248;48.196;10.924;2023-02-12T06:16:36;27.63;;;15.40;;
8421;SDS011;4248;48.196;10.924;2023-02-12T06:19:02;26.83;;;14.77;;
8421;SDS011;4248;48.196;10.924;2023-02-12T06:21:29;29.97;;;15.20;;
8421;SDS011;4248;48.196;10.924;2023-02-12T06:23:56;26.07;;;14.07;;
8421;SDS011;4248;48.196;10.924;2023-02-12T06:26:22;30.73;;;14.93;;
8421;SDS011;4248;48.196;10.924;2023-02-12T06:28:48;49.63;;;23.10;;
8421;SDS011;4248;48.196;10.924;2023-02-12T06:31:18;43.40;;;20.43;;
8421;SDS011;4248;48.196;10.924;2023-02-12T06:33:46;37.30;;;20.93;;
8421;SDS011;4248;48.196;10.924;2023-02-12T06:36:12;37.90;;;20.20;;
8421;SDS011;4248;48.196;10.924;2023-02-12T06:38:37;32.10;;;19.17;;
8421;SDS011;4248;48.196;10.924;2023-02-12T06:41:03;33.47;;;18.83;;
8421;SDS011;4248;48.196;10.924;2023-02-12T06:43:29;41.20;;;16.87;;
8421;SDS011;4248;48.196;10.924;2023-02-12T06:45:54;32.50;;;17.40;;
8421;SDS011;4248;48.196;10.924;2023-02-12T06:48:20;35.83;;;17.10;;
8421;SDS011;4248;48.196;10.924;2023-02-12T06:50:45;30.07;;;15.77;;
8421;SDS011;4248;48.196;10.924;2023-02-12T06:53:11;26.60;;;15.83;;
8421;SDS011;4248;48.196;10.924;2023-02-12T06:55:37;37.83;;;16.73;;
8421;SDS011;4248;48.196;10.924;2023-02-12T06:58:03;28.27;;;16.80;;
8421;SDS011;4248;48.196;10.924;2023-02-12T07:00:28;34.27;;;17.00;;
8421;SDS011;4248;48.196;10.924;2023-02-12T07:02:54;34.27;;;16.37;;
8421;SDS011;4248;48.196;10.924;2023-02-12T07:05:20;27.77;;;16.50;;
8421;SDS011;4248;48.196;10.924;2023-02-12T07:07:47;37.90;;;17.77;;
8421;SDS011;4248;48.196;10.924;2023-02-12T07:10:12;26.70;;;15.43;;
8421;SDS011;4248;48.196;10.924;2023-02-12T07:12:38;33.00;;;17.27;;
8421;SDS011;4248;48.196;10.924;2023-02-12T07:15:04;32.27;;;17.20;;
8421;SDS011;4248;48.196;10.924;2023-02-12T07:17:29;33.07;;;17.60;;
8421;SDS011;4248;48.196;10.924;2023-02-12T07:19:55;26.63;;;16.37;;
8421;SDS011;4248;48.196;10.924;2023-02-12T07:22:21;36.13;;;18.53;;
8421;SDS011;4248;48.196;10.924;2023-02-12T07:24:47;29.17;;;15.90;;
8421;SDS011;4248;48.196;10.924;2023-02-12T07:27:12;38.17;;;20.90;;
8421;SDS011;4248;48.196;10.924;2023-02-12T07:29:38;36.17;;;19.50;;
8421;SDS011;4248;48.196;10.924;2023-02-12T07:32:04;34.40;;;19.03;;
8421;SDS011;4248;48.196;10.924;2023-02-12T07:34:30;35.17;;;19.97;;
8421;SDS011;4248;48.196;10.924;2023-02-12T07:36:56;40.00;;;21.30;;
8421;SDS011;4248;48.196;10.924;2023-02-12T07:39:21;40.33;;;20.63;;
8421;SDS011;4248;48.196;10.924;2023-02-12T07:41:47;47.77;;;23.37;;
8421;SDS011;4248;48.196;10.924;2023-02-12T07:44:13;46.83;;;22.60;;
8421;SDS011;4248;48.196;10.924;2023-02-12T07:46:39;41.63;;;22.40;;
8421;SDS011;4248;48.196;10.924;2023-02-12T07:49:11;43.80;;;21.07;;
8421;SDS011;4248;48.196;10.924;2023-02-12T07:51:49;48.97;;;21.27;;
8421;SDS011;4248;48.196;10.924;2023-02-12T07:54:14;48.40;;;22.00;;
8421;SDS011;4248;48.196;10.924;2023-02-12T07:56:41;45.53;;;23.73;;
8421;SDS011;4248;48.196;10.924;2023-02-12T07:59:11;47.73;;;23.13;;
8421;SDS011;4248;48.196;10.924;2023-02-12T08:01:39;47.43;;;23.50;;
8421;SDS011;4248;48.196;10.924;2023-02-12T08:04:07;49.10;;;23.57;;
8421;SDS011;4248;48.196;10.924;2023-02-12T08:06:38;54.97;;;23.70;;
8421;SDS011;4248;48.196;10.924;2023-02-12T08:09:06;48.07;;;22.70;;
8421;SDS011;4248;48.196;10.924;2023-02-12T08:11:36;51.40;;;23.70;;
8421;SDS011;4248;48.196;10.924;2023-02-12T08:14:03;54.70;;;25.70;;
8421;SDS011;4248;48.196;10.924;2023-02-12T08:16:29;52.47;;;24.57;;
8421;SDS011;4248;48.196;10.924;2023-02-12T08:18:55;54.03;;;24.40;;
8421;SDS011;4248;48.196;10.924;2023-02-12T08:21:23;52.57;;;23.80;;
8421;SDS011;4248;48.196;10.924;2023-02-12T08:23:50;45.63;;;23.67;;
8421;SDS011;4248;48.196;10.924;2023-02-12T08:28:46;47.23;;;23.23;;
8421;SDS011;4248;48.196;10.924;2023-02-12T08:31:15;48.87;;;23.20;;
8421;SDS011;4248;48.196;10.924;2023-02-12T08:33:45;50.47;;;26.80;;
8421;SDS011;4248;48.196;10.924;2023-02-12T08:36:13;44.23;;;23.70;;
8421;SDS011;4248;48.196;10.924;2023-02-12T08:38:40;40.97;;;21.87;;
8421;SDS011;4248;48.196;10.924;2023-02-12T08:41:11;43.47;;;21.87;;
8421;SDS011;4248;48.196;10.924;2023-02-12T08:43:39;44.53;;;22.90;;
8421;SDS011;4248;48.196;10.924;2023-02-12T08:46:07;43.57;;;22.73;;
8421;SDS011;4248;48.196;10.924;2023-02-12T08:48:34;44.40;;;21.93;;
8421;SDS011;4248;48.196;10.924;2023-02-12T08:51:14;39.17;;;21.27;;
8421;SDS011;4248;48.196;10.924;2023-02-12T08:53:41;41.10;;;20.50;;
8421;SDS011;4248;48.196;10.924;2023-02-12T08:56:09;40.33;;;20.67;;
8421;SDS011;4248;48.196;10.924;2023-02-12T08:58:36;47.93;;;22.50;;
8421;SDS011;4248;48.196;10.924;2023-02-12T09:01:02;46.03;;;21.27;;
8421;SDS011;4248;48.196;10.924;2023-02-12T09:03:29;41.40;;;20.60;;
8421;SDS011;4248;48.196;10.924;2023-02-12T09:05:55;32.70;;;18.13;;
8421;SDS011;4248;48.196;10.924;2023-02-12T09:08:20;37.27;;;19.00;;
8421;SDS011;4248;48.196;10.924;2023-02-12T09:10:46;40.37;;;20.67;;
8421;SDS011;4248;48.196;10.924;2023-02-12T09:13:12;38.33;;;18.50;;
8421;SDS011;4248;48.196;10.924;2023-02-12T09:15:40;27.63;;;15.57;;
8421;SDS011;4248;48.196;10.924;2023-02-12T09:18:08;34.43;;;16.17;;
8421;SDS011;4248;48.196;10.924;2023-02-12T09:20:38;36.20;;;18.40;;
8421;SDS011;4248;48.196;10.924;2023-02-12T09:23:05;36.80;;;17.27;;
8421;SDS011;4248;48.196;10.924;2023-02-12T09:25:32;32.77;;;18.70;;
8421;SDS011;4248;48.196;10.924;2023-02-12T09:27:59;31.30;;;16.63;;
8421;SDS011;4248;48.196;10.924;2023-02-12T09:30:26;32.87;;;16.37;;
8421;SDS011;4248;48.196;10.924;2023-02-12T09:32:51;34.90;;;17.23;;
8421;SDS011;4248;48.196;10.924;2023-02-12T09:35:17;31.60;;;15.40;;
8421;SDS011;4248;48.196;10.924;2023-02-12T09:37:43;25.93;;;14.07;;
8421;SDS011;4248;48.196;10.924;2023-02-12T09:40:12;27.03;;;14.07;;
8421;SDS011;4248;48.196;10.924;2023-02-12T09:45:48;13.93;;;8.57;;
8421;SDS011;4248;48.196;10.924;2023-02-12T09:48:27;17.57;;;9.27;;
8421;SDS011;4248;48.196;10.924;2023-02-12T09:51:02;23.10;;;11.63;;
8421;SDS011;4248;48.196;10.924;2023-02-12T09:53:31;19.50;;;10.50;;
8421;SDS011;4248;48.196;10.924;2023-02-12T09:56:02;23.40;;;12.17;;
8421;SDS011;4248;48.196;10.924;2023-02-12T09:58:32;13.10;;;7.57;;
8421;SDS011;4248;48.196;10.924;2023-02-12T10:01:18;18.10;;;9.10;;
8421;SDS011;4248;48.196;10.924;2023-02-12T10:03:47;5.70;;;3.07;;
8421;SDS011;4248;48.196;10.924;2023-02-12T10:06:19;10.70;;;3.93;;
8421;SDS011;4248;48.196;10.924;2023-02-12T10:09:22;7.77;;;4.23;;
8421;SDS011;4248;48.196;10.924;2023-02-12T10:17:57;5.70;;;3.20;;
8421;SDS011;4248;48.196;10.924;2023-02-12T10:26:39;5.67;;;2.87;;
8421;SDS011;4248;48.196;10.924;2023-02-12T10:29:15;5.80;;;2.43;;
8421;SDS011;4248;48.196;10.924;2023-02-12T10:31:45;6.47;;;2.50;;
8421;SDS011;4248;48.196;10.924;2023-02-12T10:34:17;4.53;;;2.47;;
8421;SDS011;4248;48.196;10.924;2023-02-12T10:36:46;5.73;;;2.40;;
8421;SDS011;4248;48.196;10.924;2023-02-12T10:42:11;4.80;;;2.30;;
8421;SDS011;4248;48.196;10.924;2023-02-12T10:44:42;4.20;;;1.80;;
8421;SDS011;4248;48.196;10.924;2023-02-12T10:47:18;3.23;;;1.77;;
8421;SDS011;4248;48.196;10.924;2023-02-12T10:50:07;5.33;;;2.50;;
8421;SDS011;4248;48.196;10.924;2023-02-12T10:52:46;4.50;;;2.67;;
8421;SDS011;4248;48.196;10.924;2023-02-12T10:55:23;6.63;;;3.07;;
8421;SDS011;4248;48.196;10.924;2023-02-12T10:57:48;5.67;;;2.67;;
8421;SDS011;4248;48.196;10.924;2023-02-12T11:00:36;5.67;;;2.90;;
8421;SDS011;4248;48.196;10.924;2023-02-12T11:03:16;4.27;;;2.60;;
8421;SDS011;4248;48.196;10.924;2023-02-12T11:05:45;5.33;;;3.07;;
8421;SDS011;4248;48.196;10.924;2023-02-12T11:08:25;6.07;;;2.83;;
8421;SDS011;4248;48.196;10.924;2023-02-12T11:10:56;4.67;;;2.70;;
8421;SDS011;4248;48.196;10.924;2023-02-12T11:13:32;4.90;;;2.80;;
8421;SDS011;4248;48.196;10.924;2023-02-12T11:15:59;4.53;;;2.50;;
8421;SDS011;4248;48.196;10.924;2023-02-12T11:18:29;3.73;;;2.47;;
8421;SDS011;4248;48.196;10.924;2023-02-12T11:23:31;4.97;;;3.10;;
8421;SDS011;4248;48.196;10.924;2023-02-12T11:28:30;5.10;;;3.13;;
8421;SDS011;4248;48.196;10.924;2023-02-12T11:33:28;5.90;;;3.20;;
8421;SDS011;4248;48.196;10.924;2023-02-12T11:35:56;7.20;;;3.77;;
8421;SDS011;4248;48.196;10.924;2023-02-12T11:38:28;7.70;;;3.87;;
8421;SDS011;4248;48.196;10.924;2023-02-12T11:40:57;5.70;;;3.70;;
8421;SDS011;4248;48.196;10.924;2023-02-12T11:43:26;7.83;;;5.20;;
8421;SDS011;4248;48.196;10.924;2023-02-12T11:45:54;5.40;;;3.00;;
8421;SDS011;4248;48.196;10.924;2023-02-12T11:48:23;6.20;;;3.40;;
8421;SDS011;4248;48.196;10.924;2023-02-12T11:50:53;4.90;;;3.17;;
8421;SDS011;4248;48.196;10.924;2023-02-12T11:53:23;4.50;;;3.07;;
8421;SDS011;4248;48.196;10.924;2023-02-12T11:56:01;6.63;;;3.60;;
8421;SDS011;4248;48.196;10.924;2023-02-12T11:58:32;7.83;;;4.43;;
8421;SDS011;4248;48.196;10.924;2023-02-12T12:01:02;7.60;;;3.60;;
8421;SDS011;4248;48.196;10.924;2023-02-12T12:09:05;10.93;;;5.73;;
8421;SDS011;4248;48.196;10.924;2023-02-12T12:14:35;8.90;;;5.30;;
8421;SDS011;4248;48.196;10.924;2023-02-12T12:17:51;10.10;;;5.90;;
8421;SDS011;4248;48.196;10.924;2023-02-12T12:20:44;8.33;;;6.30;;
8421;SDS011;4248;48.196;10.924;2023-02-12T12:23:24;11.37;;;7.30;;
8421;SDS011;4248;48.196;10.924;2023-02-12T12:26:01;12.87;;;7.77;;
8421;SDS011;4248;48.196;10.924;2023-02-12T12:28:39;12.30;;;8.67;;
8421;SDS011;4248;48.196;10.924;2023-02-12T12:41:52;15.57;;;12.07;;
8421;SDS011;4248;48.196;10.924;2023-02-12T12:47:40;15.37;;;11.30;;
8421;SDS011;4248;48.196;10.924;2023-02-12T12:50:27;16.50;;;11.17;;
8421;SDS011;4248;48.196;10.924;2023-02-12T13:01:43;10.37;;;7.80;;
8421;SDS011;4248;48.196;10.924;2023-02-12T13:12:44;9.10;;;5.97;;
8421;SDS011;4248;48.196;10.924;2023-02-12T13:20:22;9.13;;;5.40;;
8421;SDS011;4248;48.196;10.924;2023-02-12T13:28:46;9.83;;;6.47;;
8421;SDS011;4248;48.196;10.924;2023-02-12T13:31:17;13.83;;;6.60;;
8421;SDS011;4248;48.196;10.924;2023-02-12T13:33:47;10.53;;;6.40;;
8421;SDS011;4248;48.196;10.924;2023-02-12T13:36:16;16.07;;;8.37;;
8421;SDS011;4248;48.196;10.924;2023-02-12T13:41:38;12.30;;;7.87;;
8421;SDS011;4248;48.196;10.924;2023-02-12T13:44:11;12.70;;;7.30;;
8421;SDS011;4248;48.196;10.924;2023-02-12T13:49:35;12.93;;;8.07;;
8421;SDS011;4248;48.196;10.924;2023-02-12T13:55:06;14.47;;;8.27;;
8421;SDS011;4248;48.196;10.924;2023-02-12T13:57:48;13.63;;;7.90;;
8421;SDS011;4248;48.196;10.924;2023-02-12T14:03:15;12.20;;;7.17;;
8421;SDS011;4248;48.196;10.924;2023-02-12T14:05:48;14.80;;;8.60;;
8421;SDS011;4248;48.196;10.924;2023-02-12T14:08:38;12.23;;;7.70;;
8421;SDS011;4248;48.196;10.924;2023-02-12T14:11:07;12.30;;;8.43;;
8421;SDS011;4248;48.196;10.924;2023-02-12T14:13:50;13.50;;;8.37;;
8421;SDS011;4248;48.196;10.924;2023-02-12T14:21:59;10.27;;;6.53;;
8421;SDS011;4248;48.196;10.924;2023-02-12T14:27:00;12.80;;;8.30;;
8421;SDS011;4248;48.196;10.924;2023-02-12T14:41:13;13.47;;;8.23;;
8421;SDS011;4248;48.196;10.924;2023-02-12T14:44:58;9.73;;;6.10;;
8421;SDS011;4248;48.196;10.924;2023-02-12T14:46:58;10.93;;;7.27;;
8421;SDS011;4248;48.196;10.924;2023-02-12T14:49:32;10.57;;;6.73;;
8421;SDS011;4248;48.196;10.924;2023-02-12T14:52:02;12.27;;;7.43;;
8421;SDS011;4248;48.196;10.924;2023-02-12T14:54:40;10.13;;;6.67;;
8421;SDS011;4248;48.196;10.924;2023-02-12T15:00:00;10.07;;;6.50;;
8421;SDS011;4248;48.196;10.924;2023-02-12T15:02:28;10.73;;;7.13;;
8421;SDS011;4248;48.196;10.924;2023-02-12T15:04:58;13.23;;;6.90;;
8421;SDS011;4248;48.196;10.924;2023-02-12T15:07:48;10.40;;;6.17;;
8421;SDS011;4248;48.196;10.924;2023-02-12T15:10:20;12.40;;;6.97;;
8421;SDS011;4248;48.196;10.924;2023-02-12T15:15:44;17.93;;;9.50;;
8421;SDS011;4248;48.196;10.924;2023-02-12T15:18:17;14.97;;;9.40;;
8421;SDS011;4248;48.196;10.924;2023-02-12T15:21:37;16.87;;;9.40;;
8421;SDS011;4248;48.196;10.924;2023-02-12T15:26:25;17.53;;;9.30;;
8421;SDS011;4248;48.196;10.924;2023-02-12T15:28:53;13.20;;;8.43;;
8421;SDS011;4248;48.196;10.924;2023-02-12T15:31:20;14.77;;;8.30;;
8421;SDS011;4248;48.196;10.924;2023-02-12T15:33:51;15.73;;;9.17;;
8421;SDS011;4248;48.196;10.924;2023-02-12T15:36:20;14.10;;;7.60;;
8421;SDS011;4248;48.196;10.924;2023-02-12T15:38:50;13.20;;;8.37;;
8421;SDS011;4248;48.196;10.924;2023-02-12T15:47:19;11.53;;;7.03;;
8421;SDS011;4248;48.196;10.924;2023-02-12T15:49:41;14.60;;;7.83;;
8421;SDS011;4248;48.196;10.924;2023-02-12T15:52:20;16.13;;;9.33;;
8421;SDS011;4248;48.196;10.924;2023-02-12T15:54:50;23.33;;;9.20;;
8421;SDS011;4248;48.196;10.924;2023-02-12T15:57:20;17.57;;;9.17;;
8421;SDS011;4248;48.196;10.924;2023-02-12T15:59:51;16.77;;;9.60;;
8421;SDS011;4248;48.196;10.924;2023-02-12T16:02:32;16.73;;;9.53;;
8421;SDS011;4248;48.196;10.924;2023-02-12T16:04:59;17.80;;;9.60;;
8421;SDS011;4248;48.196;10.924;2023-02-12T16:07:28;19.23;;;10.57;;
8421;SDS011;4248;48.196;10.924;2023-02-12T16:09:58;21.50;;;12.10;;
8421;SDS011;4248;48.196;10.924;2023-02-12T16:12:27;20.00;;;11.90;;
8421;SDS011;4248;48.196;10.924;2023-02-12T16:14:56;21.90;;;12.53;;
8421;SDS011;4248;48.196;10.924;2023-02-12T16:20:32;18.10;;;11.50;;
8421;SDS011;4248;48.196;10.924;2023-02-12T16:22:44;23.07;;;13.13;;
8421;SDS011;4248;48.196;10.924;2023-02-12T16:27:55;22.33;;;12.93;;
8421;SDS011;4248;48.196;10.924;2023-02-12T16:32:56;28.60;;;15.30;;
8421;SDS011;4248;48.196;10.924;2023-02-12T16:35:24;31.67;;;16.93;;
8421;SDS011;4248;48.196;10.924;2023-02-12T16:41:49;32.37;;;18.50;;
8421;SDS011;4248;48.196;10.924;2023-02-12T16:49:19;32.97;;;17.73;;
8421;SDS011;4248;48.196;10.924;2023-02-12T16:51:47;36.30;;;19.40;;
8421;SDS011;4248;48.196;10.924;2023-02-12T16:54:27;61.03;;;30.03;;
8421;SDS011;4248;48.196;10.924;2023-02-12T16:56:55;41.00;;;22.30;;
8421;SDS011;4248;48.196;10.924;2023-02-12T16:59:22;38.57;;;22.47;;
8421;SDS011;4248;48.196;10.924;2023-02-12T17:01:57;33.20;;;17.83;;
8421;SDS011;4248;48.196;10.924;2023-02-12T17:04:28;27.70;;;15.17;;
8421;SDS011;4248;48.196;10.924;2023-02-12T17:06:54;38.53;;;19.93;;
8421;SDS011;4248;48.196;10.924;2023-02-12T17:09:20;35.13;;;20.60;;
8421;SDS011;4248;48.196;10.924;2023-02-12T17:11:47;34.23;;;19.47;;
8421;SDS011;4248;48.196;10.924;2023-02-12T17:14:13;30.53;;;17.70;;
8421;SDS011;4248;48.196;10.924;2023-02-12T17:16:40;31.80;;;16.70;;
8421;SDS011;4248;48.196;10.924;2023-02-12T17:19:06;35.80;;;18.90;;
8421;SDS011;4248;48.196;10.924;2023-02-12T17:21:33;50.03;;;24.90;;
8421;SDS011;4248;48.196;10.924;2023-02-12T17:26:53;32.03;;;18.70;;
8421;SDS011;4248;48.196;10.924;2023-02-12T17:29:19;38.67;;;20.83;;
8421;SDS011;4248;48.196;10.924;2023-02-12T17:31:46;37.83;;;21.77;;
8421;SDS011;4248;48.196;10.924;2023-02-12T17:34:12;48.67;;;25.40;;
8421;SDS011;4248;48.196;10.924;2023-02-12T17:36:38;43.47;;;24.10;;
8421;SDS011;4248;48.196;10.924;2023-02-12T17:39:05;35.60;;;21.40;;
8421;SDS011;4248;48.196;10.924;2023-02-12T17:41:32;36.93;;;20.57;;
8421;SDS011;4248;48.196;10.924;2023-02-12T17:43:58;28.70;;;16.23;;
8421;SDS011;4248;48.196;10.924;2023-02-12T17:46:24;24.53;;;13.70;;
8421;SDS011;4248;48.196;10.924;2023-02-12T17:48:51;21.87;;;12.77;;
8421;SDS011;4248;48.196;10.924;2023-02-12T17:51:18;22.67;;;14.03;;
8421;SDS011;4248;48.196;10.924;2023-02-12T17:53:44;32.37;;;14.53;;
8421;SDS011;4248;48.196;10.924;2023-02-12T17:56:11;29.80;;;16.00;;
8421;SDS011;4248;48.196;10.924;2023-02-12T17:58:38;30.43;;;16.07;;
8421;SDS011;4248;48.196;10.924;2023-02-12T18:01:06;33.47;;;16.50;;
8421;SDS011;4248;48.196;10.924;2023-02-12T18:03:33;27.60;;;13.00;;
8421;SDS011;4248;48.196;10.924;2023-02-12T18:05:59;34.73;;;20.80;;
8421;SDS011;4248;48.196;10.924;2023-02-12T18:08:24;43.53;;;25.80;;